La Partenais — 9HA4029 — position and weather

sailwx.info

Track history (hours):
 
Tides and Currents Weather Stations Pressure Air Temp Water Temp Dewpoint Dewpoint Depression Visibility Wind Speed Wind Dir Waves Ship Positions

La Partenais

Last reported at 2018-May-21 12:31 UTC. Time now 2018-May-21 12:50 UTC.
Position N 50°59' E 001°35'.

Length 180 m; draft 10.5 m.

Type: Cargo ship. MMSI: 256892000.

Date/timePositionNaut miles runAvg speedWind from/ knotsBaromVisibWave heightAir tempDewpointWater temp
2018-May-21 12:31N 50°59' E 001°35'4 8.2
2018-May-21 12:00N 50°56' E 001°30'5 8.0
2018-May-21 11:25N 50°52' E 001°26'3 8.3
2018-May-21 11:00N 50°49' E 001°25'5 8.8
2018-May-21 10:29N 50°45' E 001°23'5 9.0
2018-May-21 09:55N 50°41' E 001°18'5 9.5
2018-May-21 09:26N 50°38' E 001°12'4 9.8
2018-May-21 09:00N 50°35' E 001°07'510.0
2018-May-21 08:29N 50°32' E 001°00'5 9.9
2018-May-21 08:01N 50°30' E 000°54'1910.1
2018-May-21 06:08N 50°24' E 000°25'210.2
2018-May-21 05:59N 50°24' E 000°23'510.1
2018-May-21 05:27N 50°22' E 000°15'510.3
2018-May-21 05:00N 50°21' E 000°08'510.5
2018-May-21 04:31N 50°20' E 000°00'611.3
2018-May-21 03:58N 50°18' W 000°09'511.1
2018-May-21 03:30N 50°17' W 000°17'611.4
2018-May-21 02:59N 50°15' W 000°26'612.0
2018-May-21 02:30N 50°14' W 000°34'612.6
2018-May-21 02:01N 50°12' W 000°44'713.4
2018-May-21 01:31N 50°10' W 000°54'713.9
2018-May-21 01:00N 50°09' W 001°05'714.4
2018-May-21 00:30N 50°06' W 001°15'714.7
2018-May-21 00:01N 50°04' W 001°26'714.9
2018-May-20 23:31N 50°02' W 001°37'815.0
2018-May-20 23:01N 50°01' W 001°49'714.8
2018-May-20 22:31N 49°59' W 001°60'714.0
2018-May-20 22:00N 49°57' W 002°11'713.2
2018-May-20 21:30N 49°55' W 002°20'612.5
2018-May-20 21:00N 49°54' W 002°30'612.1
2018-May-20 20:29N 49°52' W 002°39'611.6
2018-May-20 20:00N 49°50' W 002°47'611.4
2018-May-20 19:30N 49°48' W 002°56'510.8
2018-May-20 19:00N 49°45' W 003°03'510.6
2018-May-20 18:30N 49°43' W 003°10'510.5
2018-May-20 18:00N 49°40' W 003°17'510.4
2018-May-20 17:30N 49°37' W 003°24'510.3
2018-May-20 17:00N 49°35' W 003°31'510.3
2018-May-20 16:30N 49°33' W 003°38'510.3
2018-May-20 16:00N 49°30' W 003°45'510.2
2018-May-20 15:30N 49°27' W 003°52'1510.2
2018-May-20 13:59N 49°20' W 004°12'610.2
2018-May-20 13:25N 49°17' W 004°20'410.3
2018-May-20 13:00N 49°15' W 004°25'510.5
2018-May-20 12:29N 49°12' W 004°33'510.8
2018-May-20 11:59N 49°09' W 004°40'610.9
2018-May-20 11:29N 49°07' W 004°47'511.0
2018-May-20 10:59N 49°04' W 004°54'511.1
2018-May-20 10:30N 49°01' W 005°01'611.5
2018-May-20 10:00N 48°58' W 005°09'611.9
2018-May-20 09:31N 48°55' W 005°17'612.4
2018-May-20 09:01N 48°52' W 005°25'612.5
2018-May-20 08:31N 48°49' W 005°33'612.3
2018-May-20 08:01N 48°45' W 005°40'612.6
2018-May-20 07:31N 48°40' W 005°45'712.7
2018-May-20 06:56N 48°33' W 005°50'612.9
2018-May-20 06:31N 48°28' W 005°54'612.9
2018-May-20 06:01N 48°23' W 005°59'1512.8
2018-May-20 04:48N 48°09' W 006°10'4411.7
2018-May-20 01:03N 47°30' W 006°40'211.0
2018-May-20 00:51N 47°28' W 006°41'8011.2
2018-May-19 17:43N 46°17' W 007°34'311.7
2018-May-19 17:30N 46°14' W 007°36'1712.0
2018-May-19 16:02N 45°59' W 007°47'111.7
2018-May-19 15:59N 45°58' W 007°48'40410.3
2018-May-18 00:49N 39°24' W 009°50'4 9.9
2018-May-18 00:21N 39°20' W 009°50'410.2
2018-May-18 00:00N 39°16' W 009°50'510.1
2018-May-17 23:30N 39°11' W 009°50'510.0
2018-May-17 22:59N 39°06' W 009°50'5 9.9
2018-May-17 22:30N 39°01' W 009°51'510.0
2018-May-17 22:00N 38°56' W 009°51'510.1
2018-May-17 21:30N 38°51' W 009°51'5 9.9
2018-May-17 21:00N 38°46' W 009°51'5 9.9
2018-May-17 20:28N 38°41' W 009°50'510.0
2018-May-17 20:00N 38°36' W 009°49'510.3
2018-May-17 19:30N 38°31' W 009°48'510.2
2018-May-17 19:00N 38°26' W 009°46'510.4
2018-May-17 18:29N 38°21' W 009°45'510.9
2018-May-17 18:00N 38°16' W 009°43'611.0
2018-May-17 17:30N 38°10' W 009°41'510.9
2018-May-17 17:00N 38°05' W 009°40'510.8
2018-May-17 16:30N 37°60' W 009°38'510.8
2018-May-17 16:00N 37°55' W 009°36'510.8
2018-May-17 15:30N 37°49' W 009°35'510.8
2018-May-17 15:00N 37°44' W 009°34'510.8
2018-May-17 14:30N 37°39' W 009°32'610.8
2018-May-17 13:59N 37°33' W 009°30'510.8
2018-May-17 13:30N 37°28' W 009°28'510.5
2018-May-17 13:00N 37°23' W 009°27'510.8
2018-May-17 12:30N 37°18' W 009°26'610.9
2018-May-17 11:59N 37°13' W 009°24'19810.5
2018-May-16 17:07N 35°58' W 005°36'1 9.0
2018-May-16 17:00N 35°58' W 005°35'510.1
2018-May-16 16:30N 35°59' W 005°29'5 9.6
2018-May-16 16:00N 36°01' W 005°24'5 9.3
2018-May-16 15:30N 36°02' W 005°18'5 9.2
2018-May-16 15:00N 36°03' W 005°12'510.1
2018-May-16 14:30N 36°03' W 005°06'611.5
2018-May-16 13:58N 36°05' W 004°59'21610.8
2018-May-15 17:53N 37°24' W 000°48'411.6
2018-May-15 17:30N 37°27' W 000°44'811.4
2018-May-15 16:48N 37°33' W 000°36'410.6
2018-May-15 16:28N 37°35' W 000°33'510.4
2018-May-15 15:58N 37°39' W 000°30'510.2
2018-May-15 15:30N 37°43' W 000°26'1710.3
2018-May-15 13:53N 37°57' W 000°15'410.7
2018-May-15 13:29N 38°01' W 000°12'20211.8
2018-May-14 20:23N 40°57' E 001°57'511.8
2018-May-14 19:58N 41°01' E 001°60'511.8
2018-May-14 19:30N 41°06' E 002°03'611.5
2018-May-14 19:00N 41°11' E 002°07'611.4
2018-May-14 18:30N 41°16' E 002°10'4 8.6
2018-May-14 18:00N 41°21' E 002°10'1 2.0
2018-May-14 17:29N 41°22' E 002°10'0 0.0
2018-May-14 16:59N 41°22' E 002°10'0 0.0
2018-May-14 16:29N 41°22' E 002°10'0 0.0
2018-May-14 15:59N 41°22' E 002°10'0 0.0
2018-May-14 15:29N 41°22' E 002°10'0 0.0
2018-May-14 14:59N 41°22' E 002°10'0 0.0
2018-May-14 14:29N 41°22' E 002°10'0 0.0
2018-May-14 13:59N 41°22' E 002°10'0 0.0
2018-May-14 13:29N 41°22' E 002°10'0 0.0
2018-May-14 12:59N 41°22' E 002°10'0 0.0
2018-May-14 12:26N 41°22' E 002°10'0 0.0
2018-May-14 11:53N 41°22' E 002°10'0 0.0
2018-May-14 11:29N 41°22' E 002°10'0 0.0
2018-May-14 10:59N 41°22' E 002°10'0 0.0
2018-May-14 10:29N 41°22' E 002°10'0 0.0
2018-May-14 09:59N 41°22' E 002°11'0 0.0
2018-May-14 09:29N 41°22' E 002°10'0 0.0
2018-May-14 08:59N 41°22' E 002°10'0 0.0
2018-May-14 08:26N 41°22' E 002°10'0 0.0
2018-May-14 07:59N 41°22' E 002°10'0 0.0
2018-May-14 07:29N 41°22' E 002°10'0 0.0
2018-May-14 06:59N 41°22' E 002°10'0 0.0
2018-May-14 06:29N 41°22' E 002°10'0 0.0
2018-May-14 05:59N 41°22' E 002°10'0 0.0
2018-May-14 05:29N 41°22' E 002°10'0 0.0
2018-May-14 04:59N 41°22' E 002°10'0 0.0
2018-May-14 04:29N 41°22' E 002°10'0 0.0
2018-May-14 03:59N 41°22' E 002°10'0 0.0
2018-May-14 03:29N 41°22' E 002°10'0 0.0
2018-May-14 02:59N 41°22' E 002°10'0 0.0
2018-May-14 02:29N 41°22' E 002°10'0 0.0
2018-May-14 01:59N 41°22' E 002°10'0 0.0
2018-May-14 01:29N 41°22' E 002°10'0 0.0
2018-May-14 00:59N 41°22' E 002°10'0 0.0
2018-May-14 00:29N 41°22' E 002°10'0 0.0
2018-May-13 23:59N 41°22' E 002°10'0 0.0
2018-May-13 23:29N 41°22' E 002°10'0 0.0
2018-May-13 22:59N 41°22' E 002°10'0 0.0
2018-May-13 22:29N 41°22' E 002°10'0 0.0
2018-May-13 21:59N 41°22' E 002°10'0 0.0
2018-May-13 21:29N 41°22' E 002°10'0 0.0
2018-May-13 20:59N 41°22' E 002°10'0 0.0
2018-May-13 20:29N 41°22' E 002°10'0 0.0
2018-May-13 19:59N 41°22' E 002°10'0 0.0
2018-May-13 19:29N 41°22' E 002°10'0 0.0
2018-May-13 18:59N 41°22' E 002°10'0 0.0
2018-May-13 18:29N 41°22' E 002°10'0 0.0
2018-May-13 17:59N 41°22' E 002°10'0 0.0
2018-May-13 17:29N 41°22' E 002°10'0 0.0
2018-May-13 16:59N 41°22' E 002°10'0 0.0
2018-May-13 16:29N 41°22' E 002°10'0 0.0
2018-May-13 15:59N 41°22' E 002°10'0 0.0
2018-May-13 15:29N 41°22' E 002°10'0 0.0
2018-May-13 14:59N 41°22' E 002°10'0 0.0
2018-May-13 14:29N 41°22' E 002°10'0 0.0
2018-May-13 13:59N 41°22' E 002°10'0 0.0
2018-May-13 13:29N 41°22' E 002°10'0 0.0
2018-May-13 12:59N 41°22' E 002°10'0 0.0
2018-May-13 12:29N 41°22' E 002°10'0 0.0
2018-May-13 11:59N 41°22' E 002°10'0 0.0
2018-May-13 11:29N 41°22' E 002°10'0 0.0
2018-May-13 10:59N 41°22' E 002°10'0 0.0
2018-May-13 10:29N 41°22' E 002°10'0 0.0
2018-May-13 09:56N 41°22' E 002°11'0 0.0
2018-May-13 09:29N 41°22' E 002°10'0 0.0
2018-May-13 08:59N 41°22' E 002°10'0 0.0
2018-May-13 08:29N 41°22' E 002°10'0 0.0
2018-May-13 07:59N 41°22' E 002°10'0 0.0
2018-May-13 07:29N 41°22' E 002°10'0 0.0
2018-May-13 06:59N 41°22' E 002°10'0 0.0
2018-May-13 06:29N 41°22' E 002°10'0 0.0
2018-May-13 05:59N 41°22' E 002°10'0 0.0
2018-May-13 05:29N 41°22' E 002°10'0 0.0
2018-May-13 04:59N 41°22' E 002°10'0 0.0
2018-May-13 04:29N 41°22' E 002°10'0 0.0
2018-May-13 03:59N 41°22' E 002°10'0 0.0
2018-May-13 03:29N 41°22' E 002°10'0 0.0
2018-May-13 02:59N 41°22' E 002°10'0 0.0
2018-May-13 02:29N 41°22' E 002°10'0 0.0
2018-May-13 01:59N 41°22' E 002°10'0 0.0
2018-May-13 01:29N 41°22' E 002°10'0 0.0
2018-May-13 00:59N 41°22' E 002°10'0 0.0
2018-May-13 00:29N 41°22' E 002°10'0 0.0
2018-May-12 23:59N 41°22' E 002°10'0 0.0
2018-May-12 23:29N 41°22' E 002°10'0 0.0
2018-May-12 22:59N 41°22' E 002°10'0 0.0
2018-May-12 22:29N 41°22' E 002°10'0 0.0
2018-May-12 21:59N 41°22' E 002°10'0 0.0
2018-May-12 21:29N 41°22' E 002°10'0 0.0
2018-May-12 20:59N 41°22' E 002°10'0 0.0
2018-May-12 20:29N 41°22' E 002°10'0 0.0
2018-May-12 19:59N 41°22' E 002°10'0 0.0
2018-May-12 19:29N 41°22' E 002°10'0 0.0
2018-May-12 18:59N 41°22' E 002°10'0 0.0
2018-May-12 18:29N 41°22' E 002°10'0 0.0
2018-May-12 17:59N 41°22' E 002°10'0 0.0
2018-May-12 17:29N 41°22' E 002°10'0 0.0
2018-May-12 16:59N 41°22' E 002°10'0 0.0
2018-May-12 16:29N 41°22' E 002°10'0 0.0
2018-May-12 15:59N 41°22' E 002°10'0 0.0
2018-May-12 15:29N 41°22' E 002°10'0 0.0
2018-May-12 14:59N 41°22' E 002°10'0 0.0
2018-May-12 14:29N 41°22' E 002°10'0 0.0
2018-May-12 13:59N 41°22' E 002°10'0 0.0
2018-May-12 13:29N 41°22' E 002°10'0 0.0
2018-May-12 12:59N 41°22' E 002°10'0 0.0
2018-May-12 12:29N 41°22' E 002°10'0 0.0
2018-May-12 11:59N 41°22' E 002°10'0 0.0
2018-May-12 11:29N 41°22' E 002°10'0 0.0
2018-May-12 10:59N 41°22' E 002°10'0 0.0
2018-May-12 10:29N 41°22' E 002°10'0 0.0
2018-May-12 09:59N 41°22' E 002°10'0 0.0
2018-May-12 09:29N 41°22' E 002°10'0 0.0
2018-May-12 08:59N 41°22' E 002°10'0 0.0
2018-May-12 08:29N 41°22' E 002°10'0 0.0
2018-May-12 07:59N 41°22' E 002°10'0 0.0
2018-May-12 07:29N 41°22' E 002°10'0 0.0
2018-May-12 06:59N 41°22' E 002°10'0 0.0
2018-May-12 06:29N 41°22' E 002°10'0 0.0
2018-May-12 05:59N 41°22' E 002°10'0 0.0
2018-May-12 05:29N 41°22' E 002°10'0 0.0
2018-May-12 04:59N 41°22' E 002°10'0 0.0
2018-May-12 04:29N 41°22' E 002°10'0 0.0
2018-May-12 03:59N 41°22' E 002°10'0 0.0
2018-May-12 03:29N 41°22' E 002°10'0 0.0
2018-May-12 02:59N 41°22' E 002°10'0 0.0
2018-May-12 02:29N 41°22' E 002°10'0 0.0
2018-May-12 01:59N 41°22' E 002°10'0 0.0
2018-May-12 01:29N 41°22' E 002°10'0 0.0
2018-May-12 00:59N 41°22' E 002°10'0 0.0
2018-May-12 00:29N 41°22' E 002°10'0 0.0
2018-May-11 23:59N 41°22' E 002°10'0 0.0
2018-May-11 23:29N 41°22' E 002°10'0 0.0
2018-May-11 22:59N 41°22' E 002°10'0 0.0
2018-May-11 22:29N 41°22' E 002°10'0 0.0
2018-May-11 21:59N 41°22' E 002°10'0 0.0
2018-May-11 21:29N 41°22' E 002°10'0 0.0
2018-May-11 20:59N 41°22' E 002°10'0 0.0
2018-May-11 20:29N 41°22' E 002°10'0 0.0
2018-May-11 19:59N 41°22' E 002°10'0 0.0
2018-May-11 19:29N 41°22' E 002°10'0 0.0
2018-May-11 18:59N 41°22' E 002°10'0 0.0
2018-May-11 18:29N 41°22' E 002°10'0 0.0
2018-May-11 17:59N 41°22' E 002°10'0 0.0
2018-May-11 17:29N 41°22' E 002°10'0 0.0
2018-May-11 16:59N 41°22' E 002°10'0 0.0
2018-May-11 16:29N 41°22' E 002°10'0 0.0
2018-May-11 15:59N 41°22' E 002°10'0 0.0
2018-May-11 15:29N 41°22' E 002°10'0 0.0
2018-May-11 14:59N 41°22' E 002°10'0 0.0
2018-May-11 14:29N 41°22' E 002°10'0 0.0
2018-May-11 13:59N 41°22' E 002°10'0 0.0
2018-May-11 13:29N 41°22' E 002°10'0 0.0
2018-May-11 12:59N 41°22' E 002°10'  
Track history (hours):
 
Tides and Currents Weather Stations Pressure Air Temp Water Temp Dewpoint Dewpoint Depression Visibility Wind Speed Wind Dir Waves Ship Positions

La Partenais

Last reported at 2018-May-21 12:31 UTC. Time now 2018-May-21 12:50 UTC.
Position N 50°59' E 001°35'.

Length 180 m; draft 10.5 m.

Type: Cargo ship. MMSI: 256892000.

Date/timePositionNaut miles runAvg speedWind from/ knotsBaromVisibWave heightAir tempDewpointWater temp
2018-May-21 12:31N 50°59' E 001°35'4 8.2
2018-May-21 12:00N 50°56' E 001°30'5 8.0
2018-May-21 11:25N 50°52' E 001°26'3 8.3
2018-May-21 11:00N 50°49' E 001°25'5 8.8
2018-May-21 10:29N 50°45' E 001°23'5 9.0
2018-May-21 09:55N 50°41' E 001°18'5 9.5
2018-May-21 09:26N 50°38' E 001°12'4 9.8
2018-May-21 09:00N 50°35' E 001°07'510.0
2018-May-21 08:29N 50°32' E 001°00'5 9.9
2018-May-21 08:01N 50°30' E 000°54'1910.1
2018-May-21 06:08N 50°24' E 000°25'210.2
2018-May-21 05:59N 50°24' E 000°23'510.1
2018-May-21 05:27N 50°22' E 000°15'510.3
2018-May-21 05:00N 50°21' E 000°08'510.5
2018-May-21 04:31N 50°20' E 000°00'611.3
2018-May-21 03:58N 50°18' W 000°09'511.1
2018-May-21 03:30N 50°17' W 000°17'611.4
2018-May-21 02:59N 50°15' W 000°26'612.0
2018-May-21 02:30N 50°14' W 000°34'612.6
2018-May-21 02:01N 50°12' W 000°44'713.4
2018-May-21 01:31N 50°10' W 000°54'713.9
2018-May-21 01:00N 50°09' W 001°05'714.4
2018-May-21 00:30N 50°06' W 001°15'714.7
2018-May-21 00:01N 50°04' W 001°26'714.9
2018-May-20 23:31N 50°02' W 001°37'815.0
2018-May-20 23:01N 50°01' W 001°49'714.8
2018-May-20 22:31N 49°59' W 001°60'714.0
2018-May-20 22:00N 49°57' W 002°11'713.2
2018-May-20 21:30N 49°55' W 002°20'612.5
2018-May-20 21:00N 49°54' W 002°30'612.1
2018-May-20 20:29N 49°52' W 002°39'611.6
2018-May-20 20:00N 49°50' W 002°47'611.4
2018-May-20 19:30N 49°48' W 002°56'510.8
2018-May-20 19:00N 49°45' W 003°03'510.6
2018-May-20 18:30N 49°43' W 003°10'510.5
2018-May-20 18:00N 49°40' W 003°17'510.4
2018-May-20 17:30N 49°37' W 003°24'510.3
2018-May-20 17:00N 49°35' W 003°31'510.3
2018-May-20 16:30N 49°33' W 003°38'510.3
2018-May-20 16:00N 49°30' W 003°45'510.2
2018-May-20 15:30N 49°27' W 003°52'1510.2
2018-May-20 13:59N 49°20' W 004°12'610.2
2018-May-20 13:25N 49°17' W 004°20'410.3
2018-May-20 13:00N 49°15' W 004°25'510.5
2018-May-20 12:29N 49°12' W 004°33'510.8
2018-May-20 11:59N 49°09' W 004°40'610.9
2018-May-20 11:29N 49°07' W 004°47'511.0
2018-May-20 10:59N 49°04' W 004°54'511.1
2018-May-20 10:30N 49°01' W 005°01'611.5
2018-May-20 10:00N 48°58' W 005°09'611.9
2018-May-20 09:31N 48°55' W 005°17'612.4
2018-May-20 09:01N 48°52' W 005°25'612.5
2018-May-20 08:31N 48°49' W 005°33'612.3
2018-May-20 08:01N 48°45' W 005°40'612.6
2018-May-20 07:31N 48°40' W 005°45'712.7
2018-May-20 06:56N 48°33' W 005°50'612.9
2018-May-20 06:31N 48°28' W 005°54'612.9
2018-May-20 06:01N 48°23' W 005°59'1512.8
2018-May-20 04:48N 48°09' W 006°10'4411.7
2018-May-20 01:03N 47°30' W 006°40'211.0
2018-May-20 00:51N 47°28' W 006°41'8011.2
2018-May-19 17:43N 46°17' W 007°34'311.7
2018-May-19 17:30N 46°14' W 007°36'1712.0
2018-May-19 16:02N 45°59' W 007°47'111.7
2018-May-19 15:59N 45°58' W 007°48'40410.3
2018-May-18 00:49N 39°24' W 009°50'4 9.9
2018-May-18 00:21N 39°20' W 009°50'410.2
2018-May-18 00:00N 39°16' W 009°50'510.1
2018-May-17 23:30N 39°11' W 009°50'510.0
2018-May-17 22:59N 39°06' W 009°50'5 9.9
2018-May-17 22:30N 39°01' W 009°51'510.0
2018-May-17 22:00N 38°56' W 009°51'510.1
2018-May-17 21:30N 38°51' W 009°51'5 9.9
2018-May-17 21:00N 38°46' W 009°51'5 9.9
2018-May-17 20:28N 38°41' W 009°50'510.0
2018-May-17 20:00N 38°36' W 009°49'510.3
2018-May-17 19:30N 38°31' W 009°48'510.2
2018-May-17 19:00N 38°26' W 009°46'510.4
2018-May-17 18:29N 38°21' W 009°45'510.9
2018-May-17 18:00N 38°16' W 009°43'611.0
2018-May-17 17:30N 38°10' W 009°41'510.9
2018-May-17 17:00N 38°05' W 009°40'510.8
2018-May-17 16:30N 37°60' W 009°38'510.8
2018-May-17 16:00N 37°55' W 009°36'510.8
2018-May-17 15:30N 37°49' W 009°35'510.8
2018-May-17 15:00N 37°44' W 009°34'510.8
2018-May-17 14:30N 37°39' W 009°32'610.8
2018-May-17 13:59N 37°33' W 009°30'510.8
2018-May-17 13:30N 37°28' W 009°28'510.5
2018-May-17 13:00N 37°23' W 009°27'510.8
2018-May-17 12:30N 37°18' W 009°26'610.9
2018-May-17 11:59N 37°13' W 009°24'19810.5
2018-May-16 17:07N 35°58' W 005°36'1 9.0
2018-May-16 17:00N 35°58' W 005°35'510.1
2018-May-16 16:30N 35°59' W 005°29'5 9.6
2018-May-16 16:00N 36°01' W 005°24'5 9.3
2018-May-16 15:30N 36°02' W 005°18'5 9.2
2018-May-16 15:00N 36°03' W 005°12'510.1
2018-May-16 14:30N 36°03' W 005°06'611.5
2018-May-16 13:58N 36°05' W 004°59'21610.8
2018-May-15 17:53N 37°24' W 000°48'411.6
2018-May-15 17:30N 37°27' W 000°44'811.4
2018-May-15 16:48N 37°33' W 000°36'410.6
2018-May-15 16:28N 37°35' W 000°33'510.4
2018-May-15 15:58N 37°39' W 000°30'510.2
2018-May-15 15:30N 37°43' W 000°26'1710.3
2018-May-15 13:53N 37°57' W 000°15'410.7
2018-May-15 13:29N 38°01' W 000°12'20211.8
2018-May-14 20:23N 40°57' E 001°57'511.8
2018-May-14 19:58N 41°01' E 001°60'511.8
2018-May-14 19:30N 41°06' E 002°03'611.5
2018-May-14 19:00N 41°11' E 002°07'611.4
2018-May-14 18:30N 41°16' E 002°10'4 8.6
2018-May-14 18:00N 41°21' E 002°10'1 2.0
2018-May-14 17:29N 41°22' E 002°10'0 0.0
2018-May-14 16:59N 41°22' E 002°10'0 0.0
2018-May-14 16:29N 41°22' E 002°10'0 0.0
2018-May-14 15:59N 41°22' E 002°10'0 0.0
2018-May-14 15:29N 41°22' E 002°10'0 0.0
2018-May-14 14:59N 41°22' E 002°10'0 0.0
2018-May-14 14:29N 41°22' E 002°10'0 0.0
2018-May-14 13:59N 41°22' E 002°10'0 0.0
2018-May-14 13:29N 41°22' E 002°10'0 0.0
2018-May-14 12:59N 41°22' E 002°10'0 0.0
2018-May-14 12:26N 41°22' E 002°10'0 0.0
2018-May-14 11:53N 41°22' E 002°10'0 0.0
2018-May-14 11:29N 41°22' E 002°10'0 0.0
2018-May-14 10:59N 41°22' E 002°10'0 0.0
2018-May-14 10:29N 41°22' E 002°10'0 0.0
2018-May-14 09:59N 41°22' E 002°11'0 0.0
2018-May-14 09:29N 41°22' E 002°10'0 0.0
2018-May-14 08:59N 41°22' E 002°10'0 0.0
2018-May-14 08:26N 41°22' E 002°10'0 0.0
2018-May-14 07:59N 41°22' E 002°10'0 0.0
2018-May-14 07:29N 41°22' E 002°10'0 0.0
2018-May-14 06:59N 41°22' E 002°10'0 0.0
2018-May-14 06:29N 41°22' E 002°10'0 0.0
2018-May-14 05:59N 41°22' E 002°10'0 0.0
2018-May-14 05:29N 41°22' E 002°10'0 0.0
2018-May-14 04:59N 41°22' E 002°10'0 0.0
2018-May-14 04:29N 41°22' E 002°10'0 0.0
2018-May-14 03:59N 41°22' E 002°10'0 0.0
2018-May-14 03:29N 41°22' E 002°10'0 0.0
2018-May-14 02:59N 41°22' E 002°10'0 0.0
2018-May-14 02:29N 41°22' E 002°10'0 0.0
2018-May-14 01:59N 41°22' E 002°10'0 0.0
2018-May-14 01:29N 41°22' E 002°10'0 0.0
2018-May-14 00:59N 41°22' E 002°10'0 0.0
2018-May-14 00:29N 41°22' E 002°10'0 0.0
2018-May-13 23:59N 41°22' E 002°10'0 0.0
2018-May-13 23:29N 41°22' E 002°10'0 0.0
2018-May-13 22:59N 41°22' E 002°10'0 0.0
2018-May-13 22:29N 41°22' E 002°10'0 0.0
2018-May-13 21:59N 41°22' E 002°10'0 0.0
2018-May-13 21:29N 41°22' E 002°10'0 0.0
2018-May-13 20:59N 41°22' E 002°10'0 0.0
2018-May-13 20:29N 41°22' E 002°10'0 0.0
2018-May-13 19:59N 41°22' E 002°10'0 0.0
2018-May-13 19:29N 41°22' E 002°10'0 0.0
2018-May-13 18:59N 41°22' E 002°10'0 0.0
2018-May-13 18:29N 41°22' E 002°10'0 0.0
2018-May-13 17:59N 41°22' E 002°10'0 0.0
2018-May-13 17:29N 41°22' E 002°10'0 0.0
2018-May-13 16:59N 41°22' E 002°10'0 0.0
2018-May-13 16:29N 41°22' E 002°10'0 0.0
2018-May-13 15:59N 41°22' E 002°10'0 0.0
2018-May-13 15:29N 41°22' E 002°10'0 0.0
2018-May-13 14:59N 41°22' E 002°10'0 0.0
2018-May-13 14:29N 41°22' E 002°10'0 0.0
2018-May-13 13:59N 41°22' E 002°10'0 0.0
2018-May-13 13:29N 41°22' E 002°10'0 0.0
2018-May-13 12:59N 41°22' E 002°10'0 0.0
2018-May-13 12:29N 41°22' E 002°10'0 0.0
2018-May-13 11:59N 41°22' E 002°10'0 0.0
2018-May-13 11:29N 41°22' E 002°10'0 0.0
2018-May-13 10:59N 41°22' E 002°10'0 0.0
2018-May-13 10:29N 41°22' E 002°10'0 0.0
2018-May-13 09:56N 41°22' E 002°11'0 0.0
2018-May-13 09:29N 41°22' E 002°10'0 0.0
2018-May-13 08:59N 41°22' E 002°10'0 0.0
2018-May-13 08:29N 41°22' E 002°10'0 0.0
2018-May-13 07:59N 41°22' E 002°10'0 0.0
2018-May-13 07:29N 41°22' E 002°10'0 0.0
2018-May-13 06:59N 41°22' E 002°10'0 0.0
2018-May-13 06:29N 41°22' E 002°10'0 0.0
2018-May-13 05:59N 41°22' E 002°10'0 0.0
2018-May-13 05:29N 41°22' E 002°10'0 0.0
2018-May-13 04:59N 41°22' E 002°10'0 0.0
2018-May-13 04:29N 41°22' E 002°10'0 0.0
2018-May-13 03:59N 41°22' E 002°10'0 0.0
2018-May-13 03:29N 41°22' E 002°10'0 0.0
2018-May-13 02:59N 41°22' E 002°10'0 0.0
2018-May-13 02:29N 41°22' E 002°10'0 0.0
2018-May-13 01:59N 41°22' E 002°10'0 0.0
2018-May-13 01:29N 41°22' E 002°10'0 0.0
2018-May-13 00:59N 41°22' E 002°10'0 0.0
2018-May-13 00:29N 41°22' E 002°10'0 0.0
2018-May-12 23:59N 41°22' E 002°10'0 0.0
2018-May-12 23:29N 41°22' E 002°10'0 0.0
2018-May-12 22:59N 41°22' E 002°10'0 0.0
2018-May-12 22:29N 41°22' E 002°10'0 0.0
2018-May-12 21:59N 41°22' E 002°10'0 0.0
2018-May-12 21:29N 41°22' E 002°10'0 0.0
2018-May-12 20:59N 41°22' E 002°10'0 0.0
2018-May-12 20:29N 41°22' E 002°10'0 0.0
2018-May-12 19:59N 41°22' E 002°10'0 0.0
2018-May-12 19:29N 41°22' E 002°10'0 0.0
2018-May-12 18:59N 41°22' E 002°10'0 0.0
2018-May-12 18:29N 41°22' E 002°10'0 0.0
2018-May-12 17:59N 41°22' E 002°10'0 0.0
2018-May-12 17:29N 41°22' E 002°10'0 0.0
2018-May-12 16:59N 41°22' E 002°10'0 0.0
2018-May-12 16:29N 41°22' E 002°10'0 0.0
2018-May-12 15:59N 41°22' E 002°10'0 0.0
2018-May-12 15:29N 41°22' E 002°10'0 0.0
2018-May-12 14:59N 41°22' E 002°10'0 0.0
2018-May-12 14:29N 41°22' E 002°10'0 0.0
2018-May-12 13:59N 41°22' E 002°10'0 0.0
2018-May-12 13:29N 41°22' E 002°10'0 0.0
2018-May-12 12:59N 41°22' E 002°10'0 0.0
2018-May-12 12:29N 41°22' E 002°10'0 0.0
2018-May-12 11:59N 41°22' E 002°10'0 0.0
2018-May-12 11:29N 41°22' E 002°10'0 0.0
2018-May-12 10:59N 41°22' E 002°10'0 0.0
2018-May-12 10:29N 41°22' E 002°10'0 0.0
2018-May-12 09:59N 41°22' E 002°10'0 0.0
2018-May-12 09:29N 41°22' E 002°10'0 0.0
2018-May-12 08:59N 41°22' E 002°10'0 0.0
2018-May-12 08:29N 41°22' E 002°10'0 0.0
2018-May-12 07:59N 41°22' E 002°10'0 0.0
2018-May-12 07:29N 41°22' E 002°10'0 0.0
2018-May-12 06:59N 41°22' E 002°10'0 0.0
2018-May-12 06:29N 41°22' E 002°10'0 0.0
2018-May-12 05:59N 41°22' E 002°10'0 0.0
2018-May-12 05:29N 41°22' E 002°10'0 0.0
2018-May-12 04:59N 41°22' E 002°10'0 0.0
2018-May-12 04:29N 41°22' E 002°10'0 0.0
2018-May-12 03:59N 41°22' E 002°10'0 0.0
2018-May-12 03:29N 41°22' E 002°10'0 0.0
2018-May-12 02:59N 41°22' E 002°10'0 0.0
2018-May-12 02:29N 41°22' E 002°10'0 0.0
2018-May-12 01:59N 41°22' E 002°10'0 0.0
2018-May-12 01:29N 41°22' E 002°10'0 0.0
2018-May-12 00:59N 41°22' E 002°10'0 0.0
2018-May-12 00:29N 41°22' E 002°10'0 0.0
2018-May-11 23:59N 41°22' E 002°10'0 0.0
2018-May-11 23:29N 41°22' E 002°10'0 0.0
2018-May-11 22:59N 41°22' E 002°10'0 0.0
2018-May-11 22:29N 41°22' E 002°10'0 0.0
2018-May-11 21:59N 41°22' E 002°10'0 0.0
2018-May-11 21:29N 41°22' E 002°10'0 0.0
2018-May-11 20:59N 41°22' E 002°10'0 0.0
2018-May-11 20:29N 41°22' E 002°10'0 0.0
2018-May-11 19:59N 41°22' E 002°10'0 0.0
2018-May-11 19:29N 41°22' E 002°10'0 0.0
2018-May-11 18:59N 41°22' E 002°10'0 0.0
2018-May-11 18:29N 41°22' E 002°10'0 0.0
2018-May-11 17:59N 41°22' E 002°10'0 0.0
2018-May-11 17:29N 41°22' E 002°10'0 0.0
2018-May-11 16:59N 41°22' E 002°10'0 0.0
2018-May-11 16:29N 41°22' E 002°10'0 0.0
2018-May-11 15:59N 41°22' E 002°10'0 0.0
2018-May-11 15:29N 41°22' E 002°10'0 0.0
2018-May-11 14:59N 41°22' E 002°10'0 0.0
2018-May-11 14:29N 41°22' E 002°10'0 0.0
2018-May-11 13:59N 41°22' E 002°10'0 0.0
2018-May-11 13:29N 41°22' E 002°10'0 0.0
2018-May-11 12:59N 41°22' E 002°10'  

Dump ship's entire track history